Time;durP1;ratioP1;P1;durP2;ratioP2;P2;SDS_P1;SDS_P2;PMS_P1;PMS_P2;Temp;Humidity;BMP_temperature;BMP_pressure;BME280_temperature;BME280_humidity;BME280_pressure;Samples;Min_cycle;Max_cycle;Signal;HPM_P1;HPM_P2
2022/03/09 00:00:10;;;;;;;4.20;1.92;;;5.20;77.40;;;;;;5135795;27;20050;-76
2022/03/09 00:02:36;;;;;;;4.82;2.53;;;5.20;77.90;;;;;;5118643;27;20069;-76
2022/03/09 00:05:02;;;;;;;4.50;2.10;;;5.20;77.60;;;;;;5135754;27;20051;-75
2022/03/09 00:07:28;;;;;;;5.75;2.45;;;5.10;77.80;;;;;;5135684;27;20404;-76
2022/03/09 00:09:54;;;;;;;5.38;2.00;;;5.10;77.90;;;;;;5134835;27;20058;-76
2022/03/09 00:12:20;;;;;;;5.70;2.40;;;5.00;77.90;;;;;;5136139;27;20042;-76
2022/03/09 00:14:46;;;;;;;3.78;2.15;;;5.00;79.00;;;;;;5135606;27;20496;-75
2022/03/09 00:17:12;;;;;;;7.00;2.75;;;5.00;79.00;;;;;;5135438;27;20504;-76
2022/03/09 00:19:38;;;;;;;6.70;3.13;;;4.90;78.30;;;;;;5118299;27;20470;-76
2022/03/09 00:22:04;;;;;;;4.85;2.60;;;5.10;77.90;;;;;;5135258;27;20058;-76
2022/03/09 00:24:30;;;;;;;4.25;2.30;;;5.00;79.10;;;;;;5135464;27;20059;-76
2022/03/09 00:26:56;;;;;;;4.10;2.13;;;5.10;79.50;;;;;;5135255;27;20383;-76
2022/03/09 00:29:21;;;;;;;5.13;2.60;;;5.10;79.20;;;;;;5117983;27;20478;-75
2022/03/09 00:31:47;;;;;;;4.95;2.38;;;5.20;79.40;;;;;;5118039;27;20046;-75
2022/03/09 00:34:13;;;;;;;4.55;2.20;;;5.20;79.10;;;;;;5135049;27;20046;-75
2022/03/09 00:36:39;;;;;;;5.13;2.70;;;5.10;78.80;;;;;;5117911;27;20043;-76
2022/03/09 00:39:05;;;;;;;5.95;2.95;;;5.10;79.30;;;;;;5134651;27;20134;-76
2022/03/09 00:41:30;;;;;;;7.05;2.45;;;5.00;79.20;;;;;;5134719;27;20068;-75
2022/03/09 00:43:56;;;;;;;6.00;2.47;;;4.90;79.20;;;;;;5134987;27;20047;-76
2022/03/09 00:46:22;;;;;;;5.72;2.80;;;4.80;79.30;;;;;;5134882;27;20043;-76
2022/03/09 00:48:47;;;;;;;4.95;2.28;;;4.80;79.90;;;;;;5133852;27;20397;-75
2022/03/09 00:51:13;;;;;;;7.10;2.55;;;4.80;79.90;;;;;;5134702;27;20482;-75
2022/03/09 00:53:39;;;;;;;4.18;2.50;;;4.80;79.90;;;;;;5117700;27;20104;-75
2022/03/09 00:56:05;;;;;;;5.40;2.83;;;4.70;79.40;;;;;;5134662;27;20375;-75
2022/03/09 00:58:31;;;;;;;7.13;2.67;;;4.60;79.60;;;;;;5134796;27;20439;-76
2022/03/09 01:00:57;;;;;;;5.97;2.92;;;4.50;80.10;;;;;;5134537;27;20043;-76
2022/03/09 01:03:23;;;;;;;7.97;3.20;;;4.50;80.10;;;;;;5134920;27;20051;-76
2022/03/09 01:05:48;;;;;;;6.13;2.70;;;4.40;79.60;;;;;;5117069;27;20039;-75
2022/03/09 01:08:14;;;;;;;5.30;2.78;;;4.30;79.60;;;;;;5134203;27;20035;-75
2022/03/09 01:10:40;;;;;;;7.45;2.97;;;4.30;80.00;;;;;;5117356;27;20043;-76
2022/03/09 01:13:05;;;;;;;9.10;3.20;;;4.40;80.90;;;;;;5117237;27;20078;-75
2022/03/09 01:15:32;;;;;;;5.97;3.00;;;4.40;81.00;;;;;;5133990;27;20047;-76
2022/03/09 01:17:58;;;;;;;6.95;3.20;;;4.40;80.10;;;;;;5134336;27;20047;-75
2022/03/09 01:20:23;;;;;;;7.47;2.88;;;4.40;80.90;;;;;;5100120;27;20047;-75
2022/03/09 01:22:49;;;;;;;7.22;3.05;;;4.40;81.00;;;;;;5116751;27;20047;-75
2022/03/09 01:25:15;;;;;;;5.75;3.17;;;4.40;80.30;;;;;;5134336;27;20074;-76
2022/03/09 01:27:41;;;;;;;11.88;3.45;;;4.40;80.90;;;;;;5134445;27;20385;-76
2022/03/09 01:30:07;;;;;;;5.85;3.05;;;4.40;81.10;;;;;;5099988;27;20457;-75
2022/03/09 01:32:33;;;;;;;9.90;3.30;;;4.40;81.30;;;;;;5134044;27;20047;-76
2022/03/09 01:34:59;;;;;;;7.70;3.35;;;4.40;81.10;;;;;;5133446;27;20126;-76
2022/03/09 01:37:24;;;;;;;6.57;2.88;;;4.20;80.30;;;;;;5134770;27;20047;-76
2022/03/09 01:39:50;;;;;;;7.75;3.40;;;4.20;80.20;;;;;;5133279;27;20130;-75
2022/03/09 01:42:15;;;;;;;7.00;3.15;;;4.10;81.00;;;;;;5133614;27;20055;-76
2022/03/09 01:44:41;;;;;;;8.38;3.20;;;4.00;81.10;;;;;;5133922;27;20069;-76
2022/03/09 01:47:07;;;;;;;6.28;3.22;;;4.00;81.30;;;;;;5133418;27;20103;-75
2022/03/09 01:49:33;;;;;;;6.80;3.17;;;4.00;81.10;;;;;;5133477;27;20047;-75
2022/03/09 01:52:00;;;;;;;7.07;3.20;;;4.00;81.10;;;;;;5133748;27;20382;-76
2022/03/09 01:54:27;;;;;;;6.55;2.95;;;4.00;81.50;;;;;;5116600;28;20055;-76
2022/03/09 01:56:54;;;;;;;8.77;3.20;;;4.00;81.90;;;;;;5134309;28;20061;-76
2022/03/09 01:59:20;;;;;;;6.20;3.30;;;4.00;81.50;;;;;;5133716;28;20043;-75
2022/03/09 02:01:46;;;;;;;6.07;3.40;;;4.00;81.90;;;;;;5133474;28;20051;-76
2022/03/09 02:04:13;;;;;;;7.05;3.35;;;4.00;81.40;;;;;;5133592;28;20128;-75
2022/03/09 02:06:39;;;;;;;7.45;3.33;;;3.90;82.20;;;;;;5133586;28;20100;-75
2022/03/09 02:11:52;;;;;;;6.60;3.03;;;3.90;81.90;;;;;;5119334;28;20047;-75
2022/03/09 02:14:35;;;;;;;7.68;3.40;;;3.90;81.90;;;;;;5133572;28;20073;-75
2022/03/09 02:17:06;;;;;;;10.07;4.00;;;3.90;81.30;;;;;;5117054;28;20043;-75
2022/03/09 02:19:33;;;;;;;7.78;3.40;;;3.80;81.60;;;;;;5133834;28;20055;-75
2022/03/09 02:22:12;;;;;;;6.57;3.60;;;3.80;81.20;;;;;;5116409;28;20043;-76
2022/03/09 02:24:39;;;;;;;9.85;3.40;;;3.80;81.60;;;;;;5133492;28;20138;-75
2022/03/09 02:27:05;;;;;;;7.68;3.95;;;3.70;81.90;;;;;;5116274;28;20039;-75
2022/03/09 02:29:31;;;;;;;6.47;3.53;;;3.70;82.00;;;;;;5133300;28;20092;-75
2022/03/09 02:31:59;;;;;;;7.40;3.20;;;3.60;82.10;;;;;;5116035;28;20043;-75
2022/03/09 02:34:25;;;;;;;7.35;3.50;;;3.60;83.00;;;;;;5133375;28;20066;-75
2022/03/09 02:36:51;;;;;;;9.57;3.55;;;3.60;82.80;;;;;;5116238;28;20474;-75
2022/03/09 02:39:17;;;;;;;7.85;3.97;;;3.70;82.60;;;;;;5132861;28;20050;-75
2022/03/09 02:41:42;;;;;;;8.52;4.00;;;3.70;81.80;;;;;;5132977;28;20125;-75
2022/03/09 02:44:08;;;;;;;6.85;3.60;;;3.70;82.80;;;;;;5116117;27;20043;-76
2022/03/09 02:46:34;;;;;;;8.48;3.90;;;3.70;82.50;;;;;;5118287;27;20043;-75
2022/03/09 02:48:59;;;;;;;7.15;3.80;;;3.70;82.40;;;;;;5137021;27;20094;-75
2022/03/09 02:51:25;;;;;;;8.63;3.67;;;3.80;82.10;;;;;;5137372;27;20111;-75
2022/03/09 02:53:51;;;;;;;8.90;3.60;;;3.80;82.30;;;;;;5119998;27;20039;-75
2022/03/09 02:56:16;;;;;;;9.77;3.95;;;3.80;82.10;;;;;;5137087;27;20039;-75
2022/03/09 02:58:45;;;;;;;10.70;4.18;;;3.80;82.10;;;;;;5119501;27;20051;-75
2022/03/09 03:01:13;;;;;;;9.73;3.75;;;3.80;82.10;;;;;;5137322;27;20057;-75
2022/03/09 03:03:42;;;;;;;9.10;3.63;;;3.80;81.90;;;;;;5137135;27;20461;-75
2022/03/09 03:06:08;;;;;;;8.40;4.13;;;3.70;82.50;;;;;;5136812;27;20051;-75
2022/03/09 03:08:35;;;;;;;8.57;3.63;;;3.70;83.00;;;;;;5101948;27;20125;-76
2022/03/09 03:11:01;;;;;;;8.80;4.10;;;3.80;82.60;;;;;;5119500;27;20051;-75
2022/03/09 03:13:27;;;;;;;8.13;4.45;;;3.90;82.50;;;;;;5136696;27;20055;-76
2022/03/09 03:15:54;;;;;;;8.77;4.03;;;3.90;82.10;;;;;;5120116;27;20075;-76
2022/03/09 03:18:19;;;;;;;7.68;3.70;;;3.60;82.20;;;;;;5119155;27;20039;-76
2022/03/09 03:20:45;;;;;;;8.52;3.72;;;3.60;83.30;;;;;;5136289;27;20050;-76
2022/03/09 03:23:11;;;;;;;8.95;4.13;;;3.60;83.00;;;;;;5136519;27;20053;-75
2022/03/09 03:25:37;;;;;;;14.05;4.72;;;3.50;83.50;;;;;;5136604;27;20082;-75
2022/03/09 03:28:02;;;;;;;7.60;3.55;;;3.50;83.10;;;;;;5136147;27;20083;-76
2022/03/09 03:30:28;;;;;;;8.43;4.25;;;3.40;83.70;;;;;;5119471;27;20039;-75
2022/03/09 03:32:54;;;;;;;9.82;4.50;;;3.50;83.90;;;;;;5136360;27;20100;-76
2022/03/09 03:35:19;;;;;;;9.52;4.10;;;3.50;83.50;;;;;;5119098;27;20043;-76
2022/03/09 03:37:45;;;;;;;12.30;4.47;;;3.50;83.80;;;;;;5136099;27;20055;-76
2022/03/09 03:40:11;;;;;;;9.00;4.25;;;3.50;84.30;;;;;;5118684;27;20050;-76
2022/03/09 03:42:37;;;;;;;8.30;4.25;;;3.50;83.80;;;;;;5136146;27;20074;-76
2022/03/09 03:45:03;;;;;;;9.43;4.38;;;3.50;83.90;;;;;;5119079;27;20054;-76
2022/03/09 03:47:29;;;;;;;8.35;4.45;;;3.50;84.20;;;;;;5118780;27;20046;-76
2022/03/09 03:49:55;;;;;;;9.77;4.13;;;3.60;83.80;;;;;;5135483;27;20047;-77
2022/03/09 03:52:20;;;;;;;7.85;3.78;;;3.60;83.80;;;;;;5135963;27;20472;-76
2022/03/09 03:54:46;;;;;;;9.73;4.45;;;3.60;84.20;;;;;;5118763;27;20093;-76
2022/03/09 03:57:12;;;;;;;8.98;4.90;;;3.60;84.00;;;;;;5118272;27;20054;-76
2022/03/09 03:59:37;;;;;;;7.88;3.95;;;3.60;84.00;;;;;;5118706;27;20035;-76
2022/03/09 04:02:03;;;;;;;8.80;4.55;;;3.60;83.70;;;;;;5135764;27;20047;-76
2022/03/09 04:04:29;;;;;;;8.25;4.32;;;3.60;84.00;;;;;;5101934;27;20047;-76
2022/03/09 04:06:54;;;;;;;8.13;4.32;;;3.60;84.00;;;;;;5135631;27;20047;-76
2022/03/09 04:09:20;;;;;;;11.38;4.60;;;3.60;83.80;;;;;;5117986;27;20047;-76
2022/03/09 04:11:45;;;;;;;9.57;4.10;;;3.50;83.80;;;;;;5118518;27;20049;-75
2022/03/09 04:14:11;;;;;;;11.10;4.65;;;3.30;83.80;;;;;;5101433;27;20089;-76
2022/03/09 04:16:37;;;;;;;9.73;4.53;;;3.20;84.40;;;;;;5118839;27;20051;-75
2022/03/09 04:19:02;;;;;;;10.45;4.50;;;3.20;84.50;;;;;;5135854;27;20535;-76
2022/03/09 04:21:28;;;;;;;8.35;4.32;;;3.10;85.20;;;;;;5118273;27;20047;-76
2022/03/09 04:23:54;;;;;;;10.15;4.75;;;3.10;85.20;;;;;;5135380;27;20035;-76
2022/03/09 04:26:19;;;;;;;10.88;4.63;;;3.30;85.60;;;;;;5115513;27;20172;-77
2022/03/09 04:28:45;;;;;;;8.35;4.47;;;3.30;85.20;;;;;;5113321;28;20072;-76
2022/03/09 04:31:11;;;;;;;10.32;4.65;;;3.30;85.40;;;;;;5114689;28;20081;-76
2022/03/09 04:33:37;;;;;;;10.77;5.22;;;3.30;85.60;;;;;;5114877;28;20047;-76
2022/03/09 04:36:05;;;;;;;11.27;4.85;;;3.30;86.20;;;;;;5114519;28;20108;-76
2022/03/09 04:38:30;;;;;;;11.05;5.05;;;3.30;86.10;;;;;;5114210;28;20478;-76
2022/03/09 04:40:56;;;;;;;8.73;4.68;;;3.40;86.30;;;;;;5114395;28;20047;-76
2022/03/09 04:43:22;;;;;;;11.57;5.32;;;3.40;86.60;;;;;;5114413;28;20471;-76
2022/03/09 04:45:47;;;;;;;12.70;4.72;;;3.40;86.20;;;;;;5114355;28;20047;-76
2022/03/09 04:48:13;;;;;;;9.40;4.63;;;3.50;86.60;;;;;;5114651;27;20036;-77
2022/03/09 04:50:39;;;;;;;9.25;4.50;;;3.40;86.30;;;;;;5100528;27;20061;-76
2022/03/09 04:53:04;;;;;;;10.93;5.47;;;3.40;86.30;;;;;;5100350;27;20123;-76
2022/03/09 04:55:30;;;;;;;9.00;5.13;;;3.40;86.50;;;;;;5100553;27;20054;-76
2022/03/09 04:57:56;;;;;;;11.75;5.10;;;3.40;86.50;;;;;;5100688;27;20047;-76
2022/03/09 05:00:22;;;;;;;9.75;4.85;;;3.20;86.50;;;;;;5117418;27;20473;-76
2022/03/09 05:02:47;;;;;;;13.77;4.75;;;3.20;86.70;;;;;;5100204;27;20049;-76
2022/03/09 05:05:13;;;;;;;12.38;5.28;;;3.20;86.90;;;;;;5117223;27;20093;-76
2022/03/09 05:07:40;;;;;;;9.95;5.15;;;3.30;87.10;;;;;;5099418;28;20043;-76
2022/03/09 05:10:07;;;;;;;11.73;4.80;;;3.30;86.50;;;;;;5116544;27;20402;-76
2022/03/09 05:12:33;;;;;;;12.40;5.40;;;3.30;86.50;;;;;;5117286;27;20130;-76
2022/03/09 05:14:59;;;;;;;12.07;5.00;;;3.30;86.40;;;;;;5117274;27;20446;-76
2022/03/09 05:17:24;;;;;;;12.95;5.35;;;3.30;86.80;;;;;;5117181;27;20047;-76
2022/03/09 05:19:50;;;;;;;15.73;5.63;;;3.20;85.70;;;;;;5116961;27;20053;-76
2022/03/09 05:22:16;;;;;;;9.45;5.30;;;3.20;86.10;;;;;;5117071;27;20129;-76
2022/03/09 05:24:41;;;;;;;9.15;4.97;;;3.30;86.30;;;;;;5083233;27;20432;-76
2022/03/09 05:27:07;;;;;;;11.55;4.65;;;3.40;85.80;;;;;;5116878;27;20042;-76
2022/03/09 05:29:33;;;;;;;10.60;4.90;;;3.40;86.00;;;;;;5117078;27;20047;-76
2022/03/09 05:31:58;;;;;;;9.73;4.70;;;3.30;85.80;;;;;;5116723;27;20117;-76
2022/03/09 05:34:24;;;;;;;10.43;5.45;;;3.20;86.10;;;;;;5083215;27;20133;-76
2022/03/09 05:36:50;;;;;;;12.38;5.43;;;3.20;86.20;;;;;;5116880;27;20139;-76
2022/03/09 05:39:16;;;;;;;10.27;4.90;;;3.10;86.30;;;;;;5116340;27;20047;-76
2022/03/09 05:41:41;;;;;;;11.85;5.32;;;3.00;86.20;;;;;;5099907;27;20039;-76
2022/03/09 05:44:07;;;;;;;11.70;5.38;;;3.00;86.10;;;;;;5116199;27;20436;-76
2022/03/09 05:46:33;;;;;;;9.32;4.80;;;3.00;86.60;;;;;;5116673;27;20072;-76
2022/03/09 05:48:59;;;;;;;11.98;5.28;;;3.10;86.60;;;;;;5082206;28;20051;-76
2022/03/09 05:51:25;;;;;;;11.45;5.50;;;3.10;86.60;;;;;;5116651;28;20443;-76
2022/03/09 05:53:51;;;;;;;11.32;5.07;;;3.10;86.60;;;;;;5116587;27;20043;-76
2022/03/09 05:56:17;;;;;;;11.45;5.80;;;3.00;86.60;;;;;;5116612;28;20079;-76
2022/03/09 05:58:42;;;;;;;11.57;5.35;;;2.90;87.00;;;;;;5116912;27;20047;-76
2022/03/09 06:01:08;;;;;;;11.27;5.30;;;2.80;87.10;;;;;;5099640;28;20039;-76
2022/03/09 06:03:34;;;;;;;11.20;5.30;;;2.80;87.40;;;;;;5116781;28;20048;-76
2022/03/09 06:05:59;;;;;;;13.70;5.65;;;2.90;86.90;;;;;;5099613;28;20046;-76
2022/03/09 06:08:25;;;;;;;12.20;5.47;;;3.00;87.10;;;;;;5099326;28;20521;-76
2022/03/09 06:10:52;;;;;;;11.27;5.25;;;2.90;87.20;;;;;;5099132;28;20054;-76
2022/03/09 06:13:18;;;;;;;13.23;5.80;;;3.00;87.60;;;;;;5099544;28;20055;-76
2022/03/09 06:15:44;;;;;;;13.20;5.55;;;3.10;87.00;;;;;;5116386;28;20047;-76
2022/03/09 06:18:10;;;;;;;14.48;6.05;;;3.10;86.70;;;;;;5099501;28;20050;-76
2022/03/09 06:20:36;;;;;;;12.93;6.03;;;3.20;86.80;;;;;;5101888;27;20386;-76
2022/03/09 06:23:02;;;;;;;16.27;5.63;;;3.20;87.00;;;;;;5120570;27;20039;-76
2022/03/09 06:25:28;;;;;;;12.85;4.90;;;3.20;86.70;;;;;;5120255;27;20489;-76
2022/03/09 06:27:54;;;;;;;11.48;5.72;;;3.20;87.50;;;;;;5119883;27;20139;-76
2022/03/09 06:30:20;;;;;;;13.52;6.07;;;3.10;86.80;;;;;;5138605;27;20051;-76
2022/03/09 06:32:46;;;;;;;12.70;5.80;;;3.00;87.40;;;;;;5086760;27;20046;-76
2022/03/09 06:35:14;;;;;;;13.30;6.10;;;2.90;87.40;;;;;;5120280;27;20551;-76
2022/03/09 06:37:40;;;;;;;14.25;5.35;;;2.90;87.80;;;;;;5120560;27;20051;-77
2022/03/09 06:40:07;;;;;;;12.73;5.43;;;2.90;87.70;;;;;;5119713;27;20101;-76
2022/03/09 06:42:33;;;;;;;14.13;6.25;;;2.90;87.70;;;;;;5103245;27;20486;-77
2022/03/09 06:44:59;;;;;;;11.15;5.45;;;2.90;87.40;;;;;;5103292;27;20045;-76
2022/03/09 06:47:26;;;;;;;11.52;5.25;;;2.90;87.60;;;;;;5119818;27;20043;-76
2022/03/09 06:49:52;;;;;;;11.65;5.90;;;2.90;87.50;;;;;;5119681;27;20140;-76
2022/03/09 06:52:17;;;;;;;13.70;5.65;;;2.90;87.70;;;;;;5120005;27;20047;-76
2022/03/09 06:54:43;;;;;;;10.43;5.15;;;3.00;87.30;;;;;;5086042;27;20047;-76
2022/03/09 06:57:09;;;;;;;12.57;5.60;;;3.10;87.50;;;;;;5102948;27;20050;-77
2022/03/09 06:59:36;;;;;;;14.45;6.18;;;3.10;87.60;;;;;;5119885;27;20046;-77
2022/03/09 07:02:02;;;;;;;12.45;6.25;;;3.00;87.90;;;;;;5119654;27;20051;-77
2022/03/09 07:04:28;;;;;;;13.43;6.03;;;3.10;88.10;;;;;;5119708;27;20039;-76
2022/03/09 07:06:54;;;;;;;12.88;6.18;;;3.00;88.10;;;;;;5102488;27;20101;-76
2022/03/09 07:09:19;;;;;;;13.20;6.25;;;3.10;87.90;;;;;;5119253;27;20128;-76
2022/03/09 07:11:45;;;;;;;14.73;6.00;;;3.10;87.80;;;;;;5119598;27;20138;-76
2022/03/09 07:14:11;;;;;;;11.27;5.82;;;3.20;87.60;;;;;;5119272;27;20043;-76
2022/03/09 07:16:37;;;;;;;12.77;6.03;;;3.30;87.30;;;;;;5102499;27;20076;-76
2022/03/09 07:19:04;;;;;;;11.13;5.68;;;3.50;86.70;;;;;;5119611;27;20086;-77
2022/03/09 07:21:30;;;;;;;11.25;5.95;;;3.50;86.80;;;;;;5119484;27;20047;-76
2022/03/09 07:23:56;;;;;;;12.18;5.60;;;3.60;87.20;;;;;;5119136;27;20043;-76
2022/03/09 07:26:21;;;;;;;13.18;6.00;;;3.60;86.80;;;;;;5119369;27;20043;-77
2022/03/09 07:28:47;;;;;;;11.05;5.88;;;3.70;86.40;;;;;;5119056;27;20043;-77
2022/03/09 07:31:13;;;;;;;12.68;5.57;;;3.80;86.60;;;;;;5101495;27;20048;-77
2022/03/09 07:33:38;;;;;;;11.32;5.85;;;3.90;86.50;;;;;;5119273;27;20043;-77
2022/03/09 07:36:04;;;;;;;12.13;6.25;;;3.90;86.50;;;;;;5136303;27;20591;-76
2022/03/09 07:38:30;;;;;;;11.60;5.80;;;4.00;86.30;;;;;;5119117;27;20043;-77
2022/03/09 07:40:56;;;;;;;12.90;5.60;;;4.20;85.80;;;;;;5118644;27;20107;-77
2022/03/09 07:43:22;;;;;;;11.88;5.78;;;4.20;85.20;;;;;;5126301;27;20055;-77
2022/03/09 07:45:48;;;;;;;14.52;6.03;;;4.30;85.90;;;;;;5121838;27;20043;-79
2022/03/09 07:48:14;;;;;;;12.27;5.78;;;4.30;85.50;;;;;;5120835;27;20034;-82
2022/03/09 07:50:41;;;;;;;10.20;5.43;;;4.40;85.70;;;;;;5122607;27;20055;-81
2022/03/09 07:53:07;;;;;;;11.27;5.75;;;4.50;85.20;;;;;;5122440;27;20082;-75
2022/03/09 07:55:33;;;;;;;11.70;5.95;;;4.70;85.00;;;;;;5139347;27;20508;-78
2022/03/09 07:57:59;;;;;;;11.80;6.20;;;4.70;84.60;;;;;;5139376;27;20462;-78
2022/03/09 08:00:25;;;;;;;10.00;5.78;;;4.80;84.40;;;;;;5139790;27;20047;-78
2022/03/09 08:02:50;;;;;;;11.82;5.57;;;4.90;84.90;;;;;;5139551;27;20050;-78
2022/03/09 08:05:17;;;;;;;13.85;6.00;;;4.90;85.00;;;;;;5138846;27;20042;-77
2022/03/09 08:07:45;;;;;;;12.25;6.55;;;5.10;84.90;;;;;;5121920;27;20186;-78
2022/03/09 08:10:11;;;;;;;12.32;6.20;;;5.20;84.80;;;;;;5138424;27;20034;-78
2022/03/09 08:12:37;;;;;;;12.70;6.13;;;5.30;84.20;;;;;;5121930;27;20130;-78
2022/03/09 08:15:04;;;;;;;10.20;5.75;;;5.40;84.40;;;;;;5139108;27;20078;-79
2022/03/09 08:17:30;;;;;;;12.50;6.45;;;5.50;84.30;;;;;;5138965;27;20058;-78
2022/03/09 08:19:56;;;;;;;12.75;6.80;;;5.60;84.10;;;;;;5138917;27;20056;-80
2022/03/09 08:22:21;;;;;;;13.82;6.13;;;5.80;84.00;;;;;;5121663;27;20126;-78
2022/03/09 08:24:48;;;;;;;15.68;6.72;;;5.80;83.30;;;;;;5121494;27;20038;-77
2022/03/09 08:27:13;;;;;;;11.40;5.88;;;6.00;83.20;;;;;;5142575;27;20046;-77
2022/03/09 08:29:39;;;;;;;11.85;5.78;;;6.00;82.80;;;;;;5127980;27;20159;-78
2022/03/09 08:32:05;;;;;;;11.55;6.28;;;5.90;83.00;;;;;;5141117;27;20496;-79
2022/03/09 08:34:31;;;;;;;10.60;6.00;;;5.90;83.00;;;;;;5121983;27;20431;-79
2022/03/09 08:36:57;;;;;;;12.50;6.40;;;6.10;83.00;;;;;;5138446;27;20034;-78
2022/03/09 08:39:22;;;;;;;14.85;7.05;;;6.20;82.00;;;;;;5120872;27;20051;-78
2022/03/09 08:41:48;;;;;;;11.13;6.03;;;6.40;81.90;;;;;;5138461;27;20038;-79
2022/03/09 08:44:15;;;;;;;10.60;5.80;;;6.60;82.60;;;;;;5115920;27;20051;-80
2022/03/09 08:46:40;;;;;;;11.52;6.18;;;6.60;82.20;;;;;;5115553;27;20043;-79
2022/03/09 08:49:06;;;;;;;11.60;6.32;;;6.60;82.50;;;;;;5105984;27;20055;-79
2022/03/09 08:51:32;;;;;;;12.27;6.72;;;6.80;82.60;;;;;;5117365;27;20553;-80
2022/03/09 08:53:58;;;;;;;12.20;6.20;;;6.90;82.30;;;;;;5117606;27;20045;-80
2022/03/09 08:56:23;;;;;;;10.85;6.38;;;6.90;83.20;;;;;;5100397;27;20428;-81
2022/03/09 08:58:49;;;;;;;12.40;6.18;;;7.00;81.90;;;;;;5100271;27;20134;-81
2022/03/09 09:01:15;;;;;;;13.52;6.65;;;7.00;81.50;;;;;;5109642;27;20478;-80
2022/03/09 09:03:41;;;;;;;14.35;7.53;;;7.10;82.10;;;;;;5100903;27;20506;-81
2022/03/09 09:06:07;;;;;;;15.63;6.78;;;7.30;82.10;;;;;;5117214;27;20047;-81
2022/03/09 09:08:33;;;;;;;11.68;5.97;;;7.40;81.20;;;;;;5116824;27;20475;-81
2022/03/09 09:10:58;;;;;;;10.55;6.43;;;7.40;81.30;;;;;;5114906;27;20051;-83
2022/03/09 09:13:24;;;;;;;12.23;5.97;;;7.50;81.60;;;;;;5107760;27;20143;-78
2022/03/09 09:15:50;;;;;;;11.65;5.75;;;7.50;79.90;;;;;;5115649;27;20134;-80
2022/03/09 09:18:16;;;;;;;15.07;6.65;;;7.60;80.70;;;;;;5114445;27;20043;-83
2022/03/09 09:20:42;;;;;;;12.52;6.30;;;7.80;80.70;;;;;;5116628;27;20115;-81
2022/03/09 09:23:08;;;;;;;11.70;6.70;;;7.80;80.10;;;;;;5117200;27;20469;-81
2022/03/09 09:25:33;;;;;;;13.70;7.35;;;8.00;79.20;;;;;;5127837;27;20051;-81
2022/03/09 09:28:00;;;;;;;12.07;6.63;;;8.20;79.60;;;;;;5137138;27;20038;-81
2022/03/09 09:30:26;;;;;;;10.00;5.97;;;8.30;79.80;;;;;;5120217;27;20042;-81
2022/03/09 09:32:53;;;;;;;16.10;6.45;;;8.50;80.60;;;;;;5137273;27;20223;-76
2022/03/09 09:35:19;;;;;;;11.95;5.63;;;8.30;76.50;;;;;;5120124;27;20099;-81
2022/03/09 09:37:45;;;;;;;11.30;5.28;;;8.40;74.60;;;;;;5121885;27;20051;-81
2022/03/09 09:40:13;;;;;;;12.70;6.25;;;8.40;73.70;;;;;;5104018;27;20043;-80
2022/03/09 09:42:40;;;;;;;19.00;5.90;;;8.40;72.80;;;;;;5116057;27;20074;-83
2022/03/09 09:45:07;;;;;;;10.90;5.68;;;8.50;73.70;;;;;;5114130;27;20108;-83
2022/03/09 09:47:34;;;;;;;13.98;6.40;;;8.70;73.10;;;;;;5098229;27;20082;-83
2022/03/09 09:50:02;;;;;;;11.35;6.05;;;8.80;71.70;;;;;;5099297;27;20104;-83
2022/03/09 09:52:29;;;;;;;13.65;6.10;;;8.80;72.70;;;;;;5099871;27;20496;-81
2022/03/09 09:54:59;;;;;;;9.75;5.43;;;8.70;72.20;;;;;;5115943;27;20073;-77
2022/03/09 09:57:28;;;;;;;12.25;6.10;;;8.60;73.80;;;;;;5100321;27;20505;-76
2022/03/09 09:59:54;;;;;;;13.48;6.07;;;8.50;72.50;;;;;;5134659;27;20131;-76
2022/03/09 10:02:20;;;;;;;12.80;6.43;;;8.70;73.30;;;;;;5135098;27;20051;-80
2022/03/09 10:04:47;;;;;;;11.40;5.28;;;9.10;73.00;;;;;;5099377;28;20159;-81
2022/03/09 10:07:13;;;;;;;11.35;5.97;;;9.30;71.80;;;;;;5099731;28;20043;-85
2022/03/09 10:09:41;;;;;;;13.82;6.43;;;9.40;70.30;;;;;;5116192;28;20379;-83
2022/03/09 10:12:08;;;;;;;13.02;5.88;;;9.70;71.80;;;;;;5116535;28;20054;-81
2022/03/09 10:14:51;;;;;;;12.90;5.65;;;9.80;69.60;;;;;;5116574;28;20497;-81
2022/03/09 10:17:19;;;;;;;14.00;6.45;;;10.00;71.10;;;;;;5116171;28;20039;-80
2022/03/09 10:19:54;;;;;;;9.10;5.35;;;10.00;69.30;;;;;;5116152;28;20474;-81
2022/03/09 10:22:33;;;;;;;11.52;5.65;;;9.90;68.10;;;;;;5116667;28;20050;-81
2022/03/09 10:25:11;;;;;;;9.93;6.22;;;10.20;68.90;;;;;;5099515;28;20168;-79
2022/03/09 10:27:39;;;;;;;12.13;6.10;;;10.30;68.00;;;;;;5115901;28;20094;-76
2022/03/09 10:30:16;;;;;;;10.77;5.90;;;10.30;67.70;;;;;;5116415;28;20050;-79
2022/03/09 10:32:48;;;;;;;12.60;5.88;;;10.40;68.30;;;;;;5115966;28;20058;-76
2022/03/09 10:35:16;;;;;;;12.23;6.10;;;10.80;68.10;;;;;;5116214;28;20055;-82
2022/03/09 10:37:44;;;;;;;13.38;6.45;;;11.10;68.40;;;;;;5115974;28;20497;-83
2022/03/09 10:40:18;;;;;;;12.07;6.40;;;11.10;67.10;;;;;;5115704;28;20179;-83
2022/03/09 10:42:45;;;;;;;12.38;6.13;;;11.50;66.20;;;;;;5098957;28;20490;-83
2022/03/09 10:45:12;;;;;;;11.30;6.18;;;11.90;66.10;;;;;;5116171;28;20055;-83
2022/03/09 10:47:40;;;;;;;12.13;6.28;;;12.30;65.00;;;;;;5115982;28;20035;-83
2022/03/09 10:50:18;;;;;;;9.10;5.80;;;12.50;63.30;;;;;;5112348;28;20062;-83
2022/03/09 10:52:55;;;;;;;10.18;6.22;;;12.60;64.10;;;;;;5112422;28;20552;-83
2022/03/09 10:55:35;;;;;;;10.48;6.47;;;12.80;62.50;;;;;;5096170;28;20059;-74
2022/03/09 10:58:13;;;;;;;10.90;5.95;;;12.90;63.40;;;;;;5112727;28;20073;-83
2022/03/09 11:00:55;;;;;;;12.43;6.32;;;13.00;62.60;;;;;;5112580;28;20096;-80
2022/03/09 11:03:26;;;;;;;10.63;6.28;;;12.60;63.30;;;;;;5112727;28;20099;-79
2022/03/09 11:06:01;;;;;;;10.95;6.50;;;13.10;64.10;;;;;;5113407;28;20051;-80
2022/03/09 11:08:34;;;;;;;11.85;6.15;;;13.50;63.90;;;;;;5116131;28;20054;-79
2022/03/09 11:11:02;;;;;;;9.90;6.43;;;13.70;64.10;;;;;;5098784;28;20055;-79
2022/03/09 11:13:33;;;;;;;12.25;6.55;;;14.00;63.30;;;;;;5117537;28;20112;-80
2022/03/09 11:16:00;;;;;;;11.98;6.97;;;14.20;61.70;;;;;;5116856;28;20058;-77
2022/03/09 11:18:28;;;;;;;11.48;6.68;;;14.30;62.50;;;;;;5116662;28;20112;-75
2022/03/09 11:20:59;;;;;;;11.68;6.60;;;14.50;61.50;;;;;;5115835;28;20134;-82
2022/03/09 11:23:27;;;;;;;11.07;6.25;;;14.70;61.50;;;;;;5115922;28;20052;-81
2022/03/09 11:26:05;;;;;;;15.70;7.28;;;14.60;61.30;;;;;;5117867;28;20048;-81
2022/03/09 11:28:37;;;;;;;12.88;6.80;;;14.70;61.70;;;;;;5116767;28;20042;-81
2022/03/09 11:31:10;;;;;;;12.02;7.25;;;14.90;61.00;;;;;;5098973;28;20134;-80
2022/03/09 11:33:36;;;;;;;14.13;7.22;;;14.90;61.20;;;;;;5099586;28;20051;-81
2022/03/09 11:36:03;;;;;;;12.45;6.75;;;14.70;61.00;;;;;;5120469;28;20094;-84
2022/03/09 11:38:32;;;;;;;10.68;6.90;;;14.70;60.50;;;;;;5115740;28;20517;-79
2022/03/09 11:41:13;;;;;;;11.07;7.22;;;14.80;60.60;;;;;;5118526;28;20044;-79
2022/03/09 11:43:39;;;;;;;12.18;6.57;;;14.60;60.50;;;;;;5099390;28;20051;-76
2022/03/09 11:46:05;;;;;;;13.52;6.63;;;14.70;60.50;;;;;;5115616;28;20039;-77
2022/03/09 11:48:49;;;;;;;11.27;7.18;;;14.80;60.20;;;;;;5116141;27;20079;-77
2022/03/09 11:51:15;;;;;;;12.05;6.88;;;14.90;58.80;;;;;;5102100;27;20116;-78
2022/03/09 11:53:47;;;;;;;13.60;7.07;;;15.10;57.90;;;;;;5118897;27;20044;-78
2022/03/09 11:56:31;;;;;;;11.18;6.88;;;15.30;58.50;;;;;;5118980;27;20150;-78
2022/03/09 11:59:06;;;;;;;14.50;7.47;;;15.70;57.70;;;;;;5118923;27;20102;-78
2022/03/09 12:01:32;;;;;;;12.05;7.50;;;15.80;58.90;;;;;;5118814;27;20047;-78
2022/03/09 12:03:57;;;;;;;12.43;8.65;;;16.00;56.10;;;;;;5118092;27;20494;-79
2022/03/09 12:06:43;;;;;;;10.02;7.18;;;16.10;57.70;;;;;;5101420;27;20152;-78
2022/03/09 12:09:09;;;;;;;12.75;6.97;;;16.40;55.70;;;;;;5117908;27;20035;-79
2022/03/09 12:12:10;;;;;;;12.90;7.40;;;16.30;55.80;;;;;;5118531;27;20126;-78
2022/03/09 12:15:03;;;;;;;12.05;6.45;;;16.10;55.00;;;;;;5118303;27;20466;-76
2022/03/09 12:17:37;;;;;;;13.15;7.55;;;16.30;59.60;;;;;;5100932;27;20039;-75
2022/03/09 12:20:24;;;;;;;11.63;7.93;;;14.80;55.80;;;;;;5118159;27;20076;-75
2022/03/09 12:22:56;;;;;;;11.63;6.88;;;14.30;58.90;;;;;;5101231;27;20051;-75
2022/03/09 12:25:39;;;;;;;12.32;8.15;;;14.30;60.00;;;;;;5101203;27;20047;-76
2022/03/09 12:28:31;;;;;;;16.02;7.60;;;14.50;60.10;;;;;;5117930;27;20043;-77
2022/03/09 12:31:03;;;;;;;10.43;6.97;;;15.30;56.80;;;;;;5136640;27;20047;-78
2022/03/09 12:33:37;;;;;;;14.82;7.53;;;15.90;58.10;;;;;;5101118;27;20055;-78
2022/03/09 12:36:13;;;;;;;13.23;7.57;;;16.20;54.80;;;;;;5101011;27;20072;-78
2022/03/09 12:38:48;;;;;;;12.60;7.20;;;16.80;56.50;;;;;;5117999;27;20050;-78
2022/03/09 12:41:42;;;;;;;13.55;8.00;;;17.10;55.90;;;;;;5100433;27;20055;-78
2022/03/09 12:44:11;;;;;;;12.52;7.20;;;17.30;54.10;;;;;;5085054;27;20043;-78
2022/03/09 12:46:42;;;;;;;14.25;7.65;;;17.50;52.50;;;;;;5117808;27;20051;-78
2022/03/09 12:49:35;;;;;;;12.60;8.05;;;17.90;54.10;;;;;;5117312;27;20094;-78
2022/03/09 12:52:08;;;;;;;11.13;7.22;;;17.90;53.70;;;;;;5117110;27;20057;-78